createdAt,value
2019-01-21T00:00:33.983Z,-2.00
2019-01-21T00:03:05.621Z,-2.00
2019-01-21T00:05:37.889Z,-2.00
2019-01-21T00:08:09.451Z,-2.00
2019-01-21T00:10:40.490Z,-1.90
2019-01-21T00:13:11.337Z,-1.90
2019-01-21T00:15:44.273Z,-1.90
2019-01-21T00:18:16.224Z,-1.90
2019-01-21T00:20:47.524Z,-1.90
2019-01-21T00:23:18.940Z,-1.90
2019-01-21T00:25:51.763Z,-1.90
2019-01-21T00:28:23.103Z,-1.90
2019-01-21T00:30:54.371Z,-1.90
2019-01-21T00:33:25.951Z,-1.90
2019-01-21T00:35:56.640Z,-1.90
2019-01-21T00:38:27.350Z,-1.90
2019-01-21T00:40:58.609Z,-1.90
2019-01-21T00:43:29.719Z,-1.90
2019-01-21T00:46:00.459Z,-1.80
2019-01-21T00:48:40.244Z,-1.80
2019-01-21T00:51:12.096Z,-1.90
2019-01-21T00:53:43.202Z,-1.90
2019-01-21T00:56:14.057Z,-1.80
2019-01-21T00:58:45.186Z,-1.90
2019-01-21T01:01:16.110Z,-1.90
2019-01-21T01:03:47.080Z,-1.80
2019-01-21T01:06:17.990Z,-1.90
2019-01-21T01:08:49.057Z,-1.90
2019-01-21T01:11:20.197Z,-1.80
2019-01-21T01:13:51.519Z,-1.80
2019-01-21T01:16:22.828Z,-1.90
2019-01-21T01:18:54.516Z,-1.90
2019-01-21T01:21:26.029Z,-1.90
2019-01-21T01:23:56.708Z,-1.90
2019-01-21T01:26:27.667Z,-1.90
2019-01-21T01:28:58.412Z,-1.90
2019-01-21T01:31:29.751Z,-1.90
2019-01-21T01:34:00.568Z,-1.90
2019-01-21T01:36:30.929Z,-1.90
2019-01-21T01:39:01.137Z,-2.00
2019-01-21T01:41:32.889Z,-1.90
2019-01-21T01:44:03.456Z,-2.00
2019-01-21T01:46:34.334Z,-1.90
2019-01-21T01:49:05.565Z,-2.00
2019-01-21T01:51:37.121Z,-1.90
2019-01-21T01:54:08.951Z,-1.90
2019-01-21T01:56:39.816Z,-1.90
2019-01-21T01:59:11.569Z,-1.90
2019-01-21T02:01:42.593Z,-1.80
2019-01-21T02:04:13.742Z,-1.90
2019-01-21T02:06:44.828Z,-1.80
2019-01-21T02:09:15.489Z,-1.80
2019-01-21T02:11:46.061Z,-1.80
2019-01-21T02:14:18.816Z,-1.80
2019-01-21T02:16:53.383Z,-1.80
2019-01-21T02:19:28.041Z,-1.80
2019-01-21T02:22:00.928Z,-1.80
2019-01-21T02:24:38.488Z,-1.80
2019-01-21T02:27:28.536Z,-1.70
2019-01-21T02:30:20.914Z,-1.70
2019-01-21T02:33:17.719Z,-1.70
2019-01-21T02:36:19.662Z,-1.70
2019-01-21T02:39:19.812Z,-1.70
2019-01-21T02:42:28.970Z,-1.70
2019-01-21T02:45:26.458Z,-1.70
2019-01-21T02:48:25.600Z,-1.70
2019-01-21T02:51:20.948Z,-1.60
2019-01-21T02:54:12.589Z,-1.60
2019-01-21T02:57:10.987Z,-1.60
2019-01-21T03:00:10.336Z,-1.60
2019-01-21T03:02:51.721Z,-1.60
2019-01-21T03:06:01.165Z,-1.60
2019-01-21T03:08:55.829Z,-1.60
2019-01-21T03:11:46.170Z,-1.60
2019-01-21T03:14:36.571Z,-1.60
2019-01-21T03:17:33.591Z,-1.60
2019-01-21T03:20:21.341Z,-1.60
2019-01-21T03:23:30.319Z,-1.60
2019-01-21T03:26:16.640Z,-1.50
2019-01-21T03:29:25.473Z,-1.50
2019-01-21T03:32:23.802Z,-1.50
2019-01-21T03:35:32.471Z,-1.50
2019-01-21T03:38:41.427Z,-1.50
2019-01-21T03:41:43.595Z,-1.50
2019-01-21T03:44:47.499Z,-1.50
2019-01-21T03:47:25.293Z,-1.50
2019-01-21T03:50:24.633Z,-1.50
2019-01-21T03:53:15.328Z,-1.50
2019-01-21T03:55:47.457Z,-1.50
2019-01-21T03:58:56.427Z,-1.50
2019-01-21T04:01:52.088Z,-1.50
2019-01-21T04:04:51.816Z,-1.40
2019-01-21T04:08:00.531Z,-1.50
2019-01-21T04:10:48.145Z,-1.50
2019-01-21T04:13:35.501Z,-1.40
2019-01-21T04:16:37.373Z,-1.40
2019-01-21T04:19:29.206Z,-1.40
2019-01-21T04:22:38.651Z,-1.40
2019-01-21T04:25:15.829Z,-1.40
2019-01-21T04:28:16.598Z,-1.40
2019-01-21T04:31:26.304Z,-1.40
2019-01-21T04:34:09.566Z,-1.30
2019-01-21T04:37:19.158Z,-1.30
2019-01-21T04:40:19.432Z,-1.40
2019-01-21T04:43:28.426Z,-1.30
2019-01-21T04:46:22.976Z,-1.30
2019-01-21T04:49:06.927Z,-1.40
2019-01-21T04:51:57.889Z,-1.30
2019-01-21T04:54:49.248Z,-1.30
2019-01-21T04:57:52.587Z,-1.30
2019-01-21T05:00:57.889Z,-1.40
2019-01-21T05:03:47.634Z,-1.40
2019-01-21T05:06:56.789Z,-1.40
2019-01-21T05:09:57.851Z,-1.40
2019-01-21T05:12:59.976Z,-1.30
2019-01-21T05:16:09.250Z,-1.30
2019-01-21T05:19:10.983Z,-1.40
2019-01-21T05:22:20.471Z,-1.40
2019-01-21T05:25:29.293Z,-1.40
2019-01-21T05:28:32.542Z,-1.30
2019-01-21T05:31:43.262Z,-1.30
2019-01-21T05:34:38.672Z,-1.40
2019-01-21T05:37:33.745Z,-1.30
2019-01-21T05:40:31.143Z,-1.30
2019-01-21T05:43:28.298Z,-1.30
2019-01-21T05:46:37.722Z,-1.40
2019-01-21T05:49:47.499Z,-1.40
2019-01-21T05:52:47.834Z,-1.30
2019-01-21T05:55:44.777Z,-1.30
2019-01-21T05:58:49.888Z,-1.30
2019-01-21T06:01:58.940Z,-1.30
2019-01-21T06:04:57.619Z,-1.30
2019-01-21T06:08:00.616Z,-1.30
2019-01-21T06:10:39.201Z,-1.30
2019-01-21T06:13:48.343Z,-1.30
2019-01-21T06:16:51.228Z,-1.30
2019-01-21T06:19:49.004Z,-1.30
2019-01-21T06:22:58.220Z,-1.30
2019-01-21T06:25:54.109Z,-1.30
2019-01-21T06:28:55.880Z,-1.20
2019-01-21T06:32:05.088Z,-1.20
2019-01-21T06:34:53.933Z,-1.20
2019-01-21T06:37:47.849Z,-1.20
2019-01-21T06:40:48.583Z,-1.20
2019-01-21T06:43:44.035Z,-1.20
2019-01-21T06:46:53.008Z,-1.20
2019-01-21T06:49:50.893Z,-1.20
2019-01-21T06:52:46.901Z,-1.20
2019-01-21T06:55:42.571Z,-1.10
2019-01-21T06:58:51.552Z,-1.10
2019-01-21T07:02:00.608Z,-1.20
2019-01-21T07:05:09.808Z,-1.10
2019-01-21T07:08:18.804Z,-1.10
2019-01-21T07:11:18.603Z,-1.10
2019-01-21T07:14:27.490Z,-1.10
2019-01-21T07:17:21.474Z,-1.10
2019-01-21T07:20:07.031Z,-1.10
2019-01-21T07:23:15.954Z,-1.00
2019-01-21T07:26:12.972Z,-1.00
2019-01-21T07:29:12.652Z,-1.00
2019-01-21T07:32:21.263Z,-0.90
2019-01-21T07:35:18.863Z,-1.00
2019-01-21T07:38:16.233Z,-0.90
2019-01-21T07:41:08.466Z,-0.80
2019-01-21T07:44:02.511Z,-0.80
2019-01-21T07:47:00.400Z,-0.80
2019-01-21T07:50:00.470Z,-0.80
2019-01-21T07:53:09.349Z,-0.80
2019-01-21T07:56:00.908Z,-0.80
2019-01-21T07:59:09.628Z,-0.70
2019-01-21T08:02:06.737Z,-0.70
2019-01-21T08:05:15.968Z,-0.80
2019-01-21T08:08:00.567Z,-0.80
2019-01-21T08:11:01.138Z,-0.70
2019-01-21T08:14:09.817Z,-0.70
2019-01-21T08:17:11.601Z,-0.80
2019-01-21T08:19:56.377Z,-0.70
2019-01-21T08:23:08.858Z,-0.70
2019-01-21T08:26:17.876Z,-0.70
2019-01-21T08:29:00.790Z,-0.60
2019-01-21T08:31:40.817Z,-0.60
2019-01-21T08:34:49.763Z,-0.60
2019-01-21T08:37:56.435Z,-0.70
2019-01-21T08:40:58.267Z,-0.70
2019-01-21T08:43:52.951Z,-0.70
2019-01-21T08:46:38.795Z,-0.60
2019-01-21T08:49:31.373Z,-0.70
2019-01-21T08:52:34.094Z,-0.70
2019-01-21T08:55:36.444Z,-0.70
2019-01-21T08:58:33.926Z,-0.70
2019-01-21T09:01:45.794Z,-0.70
2019-01-21T09:04:43.105Z,-0.70
2019-01-21T09:07:53.217Z,-0.70
2019-01-21T09:10:44.279Z,-0.80
2019-01-21T09:13:35.594Z,-0.70
2019-01-21T09:16:45.095Z,-0.70
2019-01-21T09:19:47.796Z,-0.70
2019-01-21T09:22:56.972Z,-0.80
2019-01-21T09:26:06.341Z,-0.70
2019-01-21T09:29:15.102Z,-0.70
2019-01-21T09:32:14.218Z,-0.70
2019-01-21T09:34:55.235Z,-0.60
2019-01-21T09:37:56.202Z,-0.60
2019-01-21T09:40:51.721Z,-0.60
2019-01-21T09:43:51.379Z,-0.60
2019-01-21T09:46:50.508Z,-0.60
2019-01-21T09:49:20.006Z,-0.60
2019-01-21T09:52:10.977Z,-0.60
2019-01-21T09:54:43.001Z,-0.60
2019-01-21T09:57:26.226Z,-0.60
2019-01-21T10:00:01.723Z,-0.60
2019-01-21T10:02:43.178Z,-0.60
2019-01-21T10:05:15.905Z,-0.60
2019-01-21T10:08:08.402Z,-0.60
2019-01-21T10:11:18.313Z,-0.70
2019-01-21T10:14:19.489Z,-0.80
2019-01-21T10:17:28.452Z,-0.80
2019-01-21T10:20:23.898Z,-0.80
2019-01-21T10:23:21.102Z,-0.80
2019-01-21T10:26:30.585Z,-0.80
2019-01-21T10:29:26.501Z,-0.80
2019-01-21T10:32:23.697Z,-0.80
2019-01-21T10:35:20.247Z,-0.80
2019-01-21T10:38:26.809Z,-0.80
2019-01-21T10:41:11.965Z,-0.70
2019-01-21T10:44:15.112Z,-0.70
2019-01-21T10:47:15.445Z,-0.70
2019-01-21T10:50:04.100Z,-0.70
2019-01-21T10:53:12.975Z,-0.60
2019-01-21T10:56:22.726Z,-0.70
2019-01-21T10:59:32.592Z,-0.70
2019-01-21T11:02:44.517Z,-0.70
2019-01-21T11:05:46.244Z,-0.70
2019-01-21T11:08:47.435Z,-0.70
2019-01-21T11:11:53.962Z,-0.70
2019-01-21T11:15:00.327Z,-0.70
2019-01-21T11:17:48.819Z,-0.70
2019-01-21T11:20:42.383Z,-0.70
2019-01-21T11:23:36.810Z,-0.70
2019-01-21T11:26:45.766Z,-0.70
2019-01-21T11:29:47.355Z,-0.70
2019-01-21T11:32:46.175Z,-0.80
2019-01-21T11:35:47.070Z,-0.80
2019-01-21T11:38:42.270Z,-0.80
2019-01-21T11:41:28.921Z,-0.80
2019-01-21T11:44:26.007Z,-0.90
2019-01-21T11:47:18.589Z,-0.90
2019-01-21T11:50:27.855Z,-1.00
2019-01-21T11:53:29.583Z,-1.00
2019-01-21T11:56:39.078Z,-1.00
2019-01-21T11:59:32.124Z,-1.00
2019-01-21T12:02:33.188Z,-1.00
2019-01-21T12:05:42.115Z,-1.00
2019-01-21T12:08:37.938Z,-1.00
2019-01-21T12:11:40.342Z,-1.10
2019-01-21T12:14:49.375Z,-1.10
2019-01-21T12:17:44.290Z,-1.20
2019-01-21T12:20:29.627Z,-1.20
2019-01-21T12:23:38.703Z,-1.20
2019-01-21T12:26:47.964Z,-1.30
2019-01-21T12:29:57.222Z,-1.30
2019-01-21T12:33:06.735Z,-1.30
2019-01-21T12:35:59.365Z,-1.30
2019-01-21T12:39:08.287Z,-1.30
2019-01-21T12:41:50.181Z,-1.30
2019-01-21T12:44:48.584Z,-1.30
2019-01-21T12:47:27.519Z,-1.30
2019-01-21T12:50:36.670Z,-1.30
2019-01-21T12:53:30.621Z,-1.40
2019-01-21T12:56:30.444Z,-1.40
2019-01-21T12:59:26.770Z,-1.40
2019-01-21T13:02:30.826Z,-1.50
2019-01-21T13:05:28.861Z,-1.60
2019-01-21T13:08:37.544Z,-1.60
2019-01-21T13:11:37.778Z,-1.60
2019-01-21T13:14:33.437Z,-1.70
2019-01-21T13:17:29.834Z,-1.70
2019-01-21T13:20:30.761Z,-1.70
2019-01-21T13:23:31.283Z,-1.70
2019-01-21T13:26:32.194Z,-1.70
2019-01-21T13:29:31.930Z,-1.80
2019-01-21T13:32:41.401Z,-1.80
2019-01-21T13:35:39.949Z,-1.80
2019-01-21T13:38:39.537Z,-1.80
2019-01-21T13:41:48.577Z,-1.80
2019-01-21T13:44:59.301Z,-1.80
2019-01-21T13:47:41.961Z,-1.80
2019-01-21T13:50:24.280Z,-1.80
2019-01-21T13:53:33.197Z,-1.80
2019-01-21T13:56:18.752Z,-1.80
2019-01-21T13:59:05.379Z,-1.80
2019-01-21T14:01:43.907Z,-1.80
2019-01-21T14:04:53.624Z,-1.90
2019-01-21T14:07:52.060Z,-1.90
2019-01-21T14:11:00.768Z,-1.90
2019-01-21T14:14:00.096Z,-1.90
2019-01-21T14:17:09.445Z,-1.90
2019-01-21T14:20:05.395Z,-1.90
2019-01-21T14:22:55.052Z,-1.90
2019-01-21T14:25:45.605Z,-2.00
2019-01-21T14:28:54.974Z,-2.00
2019-01-21T14:31:59.166Z,-2.00
2019-01-21T14:34:41.967Z,-2.00
2019-01-21T14:37:50.286Z,-2.00
2019-01-21T14:40:30.178Z,-2.00
2019-01-21T14:43:26.536Z,-2.00
2019-01-21T14:46:35.955Z,-2.00
2019-01-21T14:49:21.463Z,-2.00
2019-01-21T14:52:30.252Z,-1.90
2019-01-21T14:55:18.384Z,-1.90
2019-01-21T14:58:17.798Z,-1.90
2019-01-21T15:01:26.864Z,-2.00
2019-01-21T15:04:35.757Z,-2.00
2019-01-21T15:07:17.663Z,-2.00
2019-01-21T15:10:15.294Z,-2.00
2019-01-21T15:13:08.947Z,-2.10
2019-01-21T15:16:04.513Z,-2.00
2019-01-21T15:19:01.108Z,-2.00
2019-01-21T15:21:57.816Z,-2.10
2019-01-21T15:24:57.982Z,-2.10
2019-01-21T15:27:58.915Z,-2.10
2019-01-21T15:31:05.617Z,-2.10
2019-01-21T15:33:54.104Z,-2.10
2019-01-21T15:36:45.109Z,-2.10
2019-01-21T15:39:26.294Z,-2.10
2019-01-21T15:42:35.480Z,-2.10
2019-01-21T15:45:44.842Z,-2.10
2019-01-21T15:48:30.140Z,-2.00
2019-01-21T15:51:39.129Z,-2.10
2019-01-21T15:54:28.186Z,-2.10
2019-01-21T15:57:36.320Z,-2.10
2019-01-21T16:00:38.048Z,-2.00
2019-01-21T16:03:35.292Z,-2.00
2019-01-21T16:06:36.374Z,-2.10
2019-01-21T16:09:25.723Z,-2.00
2019-01-21T16:12:15.426Z,-2.00
2019-01-21T16:15:24.322Z,-2.00
2019-01-21T16:18:33.235Z,-2.10
2019-01-21T16:21:42.115Z,-2.00
2019-01-21T16:24:31.630Z,-2.00
2019-01-21T16:27:08.026Z,-2.10
2019-01-21T16:29:57.357Z,-2.00
2019-01-21T16:32:56.226Z,-2.00
2019-01-21T16:36:06.142Z,-2.00
2019-01-21T16:38:52.148Z,-2.00
2019-01-21T16:41:48.235Z,-2.10
2019-01-21T16:44:19.293Z,-2.10
2019-01-21T16:46:51.249Z,-2.10
2019-01-21T16:49:22.331Z,-2.10
2019-01-21T16:51:53.777Z,-2.10
2019-01-21T16:54:24.515Z,-2.10
2019-01-21T16:56:56.345Z,-2.10
2019-01-21T16:59:27.181Z,-2.10
2019-01-21T17:01:57.879Z,-2.10
2019-01-21T17:04:32.821Z,-2.10
2019-01-21T17:07:04.713Z,-2.10
2019-01-21T17:09:35.382Z,-2.10
2019-01-21T17:12:06.896Z,-2.10
2019-01-21T17:14:37.906Z,-2.10
2019-01-21T17:17:08.914Z,-2.10
2019-01-21T17:19:40.250Z,-2.20
2019-01-21T17:22:11.466Z,-2.20
2019-01-21T17:24:42.887Z,-2.20
2019-01-21T17:27:13.608Z,-2.10
2019-01-21T17:29:44.788Z,-2.20
2019-01-21T17:32:15.977Z,-2.10
2019-01-21T17:34:47.080Z,-2.20
2019-01-21T17:37:18.130Z,-2.10
2019-01-21T17:39:49.881Z,-2.10
2019-01-21T17:42:21.504Z,-2.10
2019-01-21T17:44:52.900Z,-2.10
2019-01-21T17:47:23.867Z,-2.10
2019-01-21T17:49:57.020Z,-2.10
2019-01-21T17:52:28.314Z,-2.00
2019-01-21T17:54:59.564Z,-2.00
2019-01-21T17:57:30.838Z,-2.00
2019-01-21T18:00:03.339Z,-2.00
2019-01-21T18:02:36.450Z,-2.00
2019-01-21T18:05:08.885Z,-2.00
2019-01-21T18:07:40.536Z,-2.00
2019-01-21T18:10:14.125Z,-2.00
2019-01-21T18:12:45.332Z,-2.00
2019-01-21T18:15:16.704Z,-2.00
2019-01-21T18:17:48.212Z,-2.10
2019-01-21T18:20:21.778Z,-2.00
2019-01-21T18:22:52.985Z,-2.00
2019-01-21T18:25:28.125Z,-2.00
2019-01-21T18:28:00.088Z,-2.00
2019-01-21T18:30:31.531Z,-2.10
2019-01-21T18:33:03.097Z,-2.10
2019-01-21T18:35:58.382Z,-2.10
2019-01-21T18:38:51.128Z,-2.10
2019-01-21T18:41:40.811Z,-2.10
2019-01-21T18:44:35.013Z,-2.10
2019-01-21T18:47:12.041Z,-2.10
2019-01-21T18:50:02.735Z,-2.10
2019-01-21T18:52:54.346Z,-2.10
2019-01-21T18:55:59.955Z,-2.00
2019-01-21T18:59:06.436Z,-2.00
2019-01-21T19:02:26.446Z,-2.10
2019-01-21T19:05:08.480Z,-2.10
2019-01-21T19:07:40.457Z,-2.10
2019-01-21T19:10:44.588Z,-2.10
2019-01-21T19:13:36.507Z,-2.10
2019-01-21T19:16:26.806Z,-2.10
2019-01-21T19:18:59.754Z,-2.10
2019-01-21T19:21:53.582Z,-2.10
2019-01-21T19:24:28.540Z,-2.20
2019-01-21T19:27:07.661Z,-2.10
2019-01-21T19:29:53.382Z,-2.10
2019-01-21T19:32:35.833Z,-2.10
2019-01-21T19:35:26.597Z,-2.10
2019-01-21T19:38:31.743Z,-2.20
2019-01-21T19:41:25.465Z,-2.10
2019-01-21T19:43:56.793Z,-2.10
2019-01-21T19:46:27.880Z,-2.10
2019-01-21T19:49:11.256Z,-2.10
2019-01-21T19:52:13.056Z,-2.10
2019-01-21T19:54:46.176Z,-2.10
2019-01-21T19:57:41.478Z,-2.00
2019-01-21T20:00:27.411Z,-2.10
2019-01-21T20:03:29.499Z,-2.20
2019-01-21T20:06:39.305Z,-2.30
2019-01-21T20:09:21.949Z,-2.30
2019-01-21T20:11:53.080Z,-2.40
2019-01-21T20:14:24.370Z,-2.40
2019-01-21T20:16:55.483Z,-2.40
2019-01-21T20:19:26.861Z,-2.40
2019-01-21T20:21:58.603Z,-2.40
2019-01-21T20:24:33.193Z,-2.30
2019-01-21T20:27:04.206Z,-2.30
2019-01-21T20:29:34.860Z,-2.40
2019-01-21T20:32:06.038Z,-2.40
2019-01-21T20:34:42.231Z,-2.40
2019-01-21T20:37:15.179Z,-2.30
2019-01-21T20:40:01.802Z,-2.30
2019-01-21T20:42:33.831Z,-2.30
2019-01-21T20:45:11.571Z,-2.30
2019-01-21T20:47:55.139Z,-2.30
2019-01-21T20:50:31.478Z,-2.40
2019-01-21T20:53:02.040Z,-2.40
2019-01-21T20:55:34.315Z,-2.40
2019-01-21T20:58:22.882Z,-2.40
2019-01-21T21:01:05.026Z,-2.40
2019-01-21T21:03:40.064Z,-2.40
2019-01-21T21:06:15.578Z,-2.40
2019-01-21T21:08:53.088Z,-2.40
2019-01-21T21:11:42.053Z,-2.30
2019-01-21T21:14:39.387Z,-2.30
2019-01-21T21:17:29.602Z,-2.30
2019-01-21T21:20:04.143Z,-2.30
2019-01-21T21:22:35.499Z,-2.30
2019-01-21T21:25:09.552Z,-2.30
2019-01-21T21:27:53.351Z,-2.40
2019-01-21T21:30:40.547Z,-2.40
2019-01-21T21:33:14.051Z,-2.40
2019-01-21T21:35:45.436Z,-2.50
2019-01-21T21:38:16.787Z,-2.50
2019-01-21T21:40:48.026Z,-2.40
2019-01-21T21:43:18.848Z,-2.40
2019-01-21T21:45:59.034Z,-2.40
2019-01-21T21:48:38.859Z,-2.40
2019-01-21T21:51:14.256Z,-2.40
2019-01-21T21:53:46.289Z,-2.40
2019-01-21T21:56:32.953Z,-2.50
2019-01-21T21:59:08.961Z,-2.50
2019-01-21T22:01:56.978Z,-2.50
2019-01-21T22:04:36.260Z,-2.60
2019-01-21T22:07:12.327Z,-2.60
2019-01-21T22:09:42.890Z,-2.50
2019-01-21T22:12:17.859Z,-2.50
2019-01-21T22:14:48.971Z,-2.40
2019-01-21T22:17:20.727Z,-2.40
2019-01-21T22:19:53.358Z,-2.50
2019-01-21T22:22:24.691Z,-2.50
2019-01-21T22:24:59.891Z,-2.50
2019-01-21T22:27:31.021Z,-2.60
2019-01-21T22:30:01.893Z,-2.60
2019-01-21T22:32:41.431Z,-2.70
2019-01-21T22:35:29.487Z,-2.70
2019-01-21T22:38:03.648Z,-2.70
2019-01-21T22:40:51.280Z,-2.70
2019-01-21T22:43:43.701Z,-2.60
2019-01-21T22:46:20.620Z,-2.70
2019-01-21T22:48:51.512Z,-2.60
2019-01-21T22:51:32.975Z,-2.60
2019-01-21T22:54:03.778Z,-2.60
2019-01-21T22:56:50.657Z,-2.60
2019-01-21T22:59:34.594Z,-2.70
2019-01-21T23:02:11.013Z,-2.90
2019-01-21T23:04:45.150Z,-3.00
2019-01-21T23:07:24.285Z,-3.10
2019-01-21T23:10:05.437Z,-3.10
2019-01-21T23:12:42.214Z,-3.20
2019-01-21T23:15:28.211Z,-3.30
2019-01-21T23:18:19.451Z,-3.30
2019-01-21T23:20:54.327Z,-3.40
2019-01-21T23:23:25.479Z,-3.50
2019-01-21T23:25:57.127Z,-3.40
2019-01-21T23:28:28.858Z,-3.50
2019-01-21T23:31:00.273Z,-3.50
2019-01-21T23:33:31.249Z,-3.50
2019-01-21T23:36:02.371Z,-3.50
2019-01-21T23:38:33.656Z,-3.60
2019-01-21T23:41:04.949Z,-3.60
2019-01-21T23:43:36.762Z,-3.60
2019-01-21T23:46:07.803Z,-3.60
2019-01-21T23:48:38.736Z,-3.60
2019-01-21T23:51:10.470Z,-3.50
2019-01-21T23:53:41.584Z,-3.50
2019-01-21T23:56:12.413Z,-3.50
2019-01-21T23:58:43.219Z,-3.40
